sensor_id;sensor_type;location;lat;lon;timestamp;temperature;humidity
10046;DHT22;5063;50.878;4.742;2022-07-15T00:02:15;14.80;99.90
10046;DHT22;5063;50.878;4.742;2022-07-15T00:04:41;14.80;99.90
10046;DHT22;5063;50.878;4.742;2022-07-15T00:07:07;14.80;99.90
10046;DHT22;5063;50.878;4.742;2022-07-15T00:09:33;14.70;99.90
10046;DHT22;5063;50.878;4.742;2022-07-15T00:12:17;14.60;99.90
10046;DHT22;5063;50.878;4.742;2022-07-15T00:14:43;14.60;99.90
10046;DHT22;5063;50.878;4.742;2022-07-15T00:17:09;14.50;99.90
10046;DHT22;5063;50.878;4.742;2022-07-15T00:19:36;14.40;99.90
10046;DHT22;5063;50.878;4.742;2022-07-15T00:22:02;14.30;99.90
10046;DHT22;5063;50.878;4.742;2022-07-15T00:24:29;14.30;99.90
10046;DHT22;5063;50.878;4.742;2022-07-15T00:26:55;14.30;99.90
10046;DHT22;5063;50.878;4.742;2022-07-15T00:29:22;14.20;99.90
10046;DHT22;5063;50.878;4.742;2022-07-15T00:31:48;14.30;99.90
10046;DHT22;5063;50.878;4.742;2022-07-15T00:34:14;14.20;99.90
10046;DHT22;5063;50.878;4.742;2022-07-15T00:36:42;14.20;99.90
10046;DHT22;5063;50.878;4.742;2022-07-15T00:39:07;14.20;99.90
10046;DHT22;5063;50.878;4.742;2022-07-15T00:41:42;14.30;99.90
10046;DHT22;5063;50.878;4.742;2022-07-15T00:44:08;14.30;99.90
10046;DHT22;5063;50.878;4.742;2022-07-15T00:46:35;14.30;99.90
10046;DHT22;5063;50.878;4.742;2022-07-15T00:49:03;14.20;99.90
10046;DHT22;5063;50.878;4.742;2022-07-15T00:51:41;14.30;99.90
10046;DHT22;5063;50.878;4.742;2022-07-15T00:54:10;14.00;99.90
10046;DHT22;5063;50.878;4.742;2022-07-15T00:56:40;13.90;99.90
10046;DHT22;5063;50.878;4.742;2022-07-15T00:59:07;13.90;99.90
10046;DHT22;5063;50.878;4.742;2022-07-15T01:01:34;13.80;99.90
10046;DHT22;5063;50.878;4.742;2022-07-15T01:04:03;13.80;99.90
10046;DHT22;5063;50.878;4.742;2022-07-15T01:06:29;13.70;99.90
10046;DHT22;5063;50.878;4.742;2022-07-15T01:08:55;13.70;99.90
10046;DHT22;5063;50.878;4.742;2022-07-15T01:11:20;13.50;99.90
10046;DHT22;5063;50.878;4.742;2022-07-15T01:13:46;13.50;99.90
10046;DHT22;5063;50.878;4.742;2022-07-15T01:16:12;13.40;99.90
10046;DHT22;5063;50.878;4.742;2022-07-15T01:18:38;13.30;99.90
10046;DHT22;5063;50.878;4.742;2022-07-15T01:21:04;13.20;99.90
10046;DHT22;5063;50.878;4.742;2022-07-15T01:23:30;13.20;99.90
10046;DHT22;5063;50.878;4.742;2022-07-15T01:25:56;13.20;99.90
10046;DHT22;5063;50.878;4.742;2022-07-15T01:28:24;13.20;99.90
10046;DHT22;5063;50.878;4.742;2022-07-15T01:30:50;13.00;99.90
10046;DHT22;5063;50.878;4.742;2022-07-15T01:33:16;13.00;99.90
10046;DHT22;5063;50.878;4.742;2022-07-15T01:35:42;13.00;99.90
10046;DHT22;5063;50.878;4.742;2022-07-15T01:38:08;12.90;99.90
10046;DHT22;5063;50.878;4.742;2022-07-15T01:40:36;13.10;99.90
10046;DHT22;5063;50.878;4.742;2022-07-15T01:43:02;12.80;99.90
10046;DHT22;5063;50.878;4.742;2022-07-15T01:45:27;12.80;99.90
10046;DHT22;5063;50.878;4.742;2022-07-15T01:47:53;12.70;99.90
10046;DHT22;5063;50.878;4.742;2022-07-15T01:50:21;12.70;99.90
10046;DHT22;5063;50.878;4.742;2022-07-15T01:52:47;12.60;99.90
10046;DHT22;5063;50.878;4.742;2022-07-15T01:55:13;12.50;99.90
10046;DHT22;5063;50.878;4.742;2022-07-15T01:57:39;12.60;99.90
10046;DHT22;5063;50.878;4.742;2022-07-15T02:00:06;12.50;99.90
10046;DHT22;5063;50.878;4.742;2022-07-15T02:02:33;12.50;99.90
10046;DHT22;5063;50.878;4.742;2022-07-15T02:04:59;12.50;99.90
10046;DHT22;5063;50.878;4.742;2022-07-15T02:07:27;12.60;99.90
10046;DHT22;5063;50.878;4.742;2022-07-15T02:09:53;12.50;99.90
10046;DHT22;5063;50.878;4.742;2022-07-15T02:12:19;12.40;99.90
10046;DHT22;5063;50.878;4.742;2022-07-15T02:14:44;12.40;99.90
10046;DHT22;5063;50.878;4.742;2022-07-15T02:17:10;12.50;99.90
10046;DHT22;5063;50.878;4.742;2022-07-15T02:19:36;12.40;99.90
10046;DHT22;5063;50.878;4.742;2022-07-15T02:22:02;12.30;99.90
10046;DHT22;5063;50.878;4.742;2022-07-15T02:24:27;12.50;99.90
10046;DHT22;5063;50.878;4.742;2022-07-15T02:26:53;12.40;99.90
10046;DHT22;5063;50.878;4.742;2022-07-15T02:29:19;12.30;99.90
10046;DHT22;5063;50.878;4.742;2022-07-15T02:31:45;12.20;99.90
10046;DHT22;5063;50.878;4.742;2022-07-15T02:34:10;12.10;99.90
10046;DHT22;5063;50.878;4.742;2022-07-15T02:36:36;12.10;99.90
10046;DHT22;5063;50.878;4.742;2022-07-15T02:39:03;12.00;99.90
10046;DHT22;5063;50.878;4.742;2022-07-15T02:41:29;12.00;99.90
10046;DHT22;5063;50.878;4.742;2022-07-15T02:43:55;12.00;99.90
10046;DHT22;5063;50.878;4.742;2022-07-15T02:46:21;12.00;99.90
10046;DHT22;5063;50.878;4.742;2022-07-15T02:48:47;11.90;99.90
10046;DHT22;5063;50.878;4.742;2022-07-15T02:51:13;11.90;99.90
10046;DHT22;5063;50.878;4.742;2022-07-15T02:53:40;12.00;99.90
10046;DHT22;5063;50.878;4.742;2022-07-15T02:56:06;11.90;99.90
10046;DHT22;5063;50.878;4.742;2022-07-15T02:58:32;11.90;99.90
10046;DHT22;5063;50.878;4.742;2022-07-15T03:00:59;11.90;99.90
10046;DHT22;5063;50.878;4.742;2022-07-15T03:03:25;11.90;99.90
10046;DHT22;5063;50.878;4.742;2022-07-15T03:05:57;11.80;99.90
10046;DHT22;5063;50.878;4.742;2022-07-15T03:08:23;11.80;99.90
10046;DHT22;5063;50.878;4.742;2022-07-15T03:10:50;11.80;99.90
10046;DHT22;5063;50.878;4.742;2022-07-15T03:13:15;11.80;99.90
10046;DHT22;5063;50.878;4.742;2022-07-15T03:15:41;11.80;99.90
10046;DHT22;5063;50.878;4.742;2022-07-15T03:18:07;11.80;99.90
10046;DHT22;5063;50.878;4.742;2022-07-15T03:20:33;11.90;99.90
10046;DHT22;5063;50.878;4.742;2022-07-15T03:22:59;11.80;99.90
10046;DHT22;5063;50.878;4.742;2022-07-15T03:25:24;11.70;99.90
10046;DHT22;5063;50.878;4.742;2022-07-15T03:27:50;11.60;99.90
10046;DHT22;5063;50.878;4.742;2022-07-15T03:30:17;11.60;99.90
10046;DHT22;5063;50.878;4.742;2022-07-15T03:32:43;11.60;99.90
10046;DHT22;5063;50.878;4.742;2022-07-15T03:35:09;11.70;99.90
10046;DHT22;5063;50.878;4.742;2022-07-15T03:37:35;11.70;99.90
10046;DHT22;5063;50.878;4.742;2022-07-15T03:40:01;11.60;99.90
10046;DHT22;5063;50.878;4.742;2022-07-15T03:42:27;11.60;99.90
10046;DHT22;5063;50.878;4.742;2022-07-15T03:44:52;11.60;99.90
10046;DHT22;5063;50.878;4.742;2022-07-15T03:47:18;11.80;99.90
10046;DHT22;5063;50.878;4.742;2022-07-15T03:49:44;11.60;99.90
10046;DHT22;5063;50.878;4.742;2022-07-15T03:52:10;11.60;99.90
10046;DHT22;5063;50.878;4.742;2022-07-15T03:54:35;11.60;99.90
10046;DHT22;5063;50.878;4.742;2022-07-15T03:57:01;11.70;99.90
10046;DHT22;5063;50.878;4.742;2022-07-15T03:59:27;11.70;99.90
10046;DHT22;5063;50.878;4.742;2022-07-15T04:01:53;11.70;99.90
10046;DHT22;5063;50.878;4.742;2022-07-15T04:04:19;11.70;99.90
10046;DHT22;5063;50.878;4.742;2022-07-15T04:06:45;11.70;99.90
10046;DHT22;5063;50.878;4.742;2022-07-15T04:09:11;11.70;99.90
10046;DHT22;5063;50.878;4.742;2022-07-15T04:11:38;11.90;99.90
10046;DHT22;5063;50.878;4.742;2022-07-15T04:14:14;11.90;99.90
10046;DHT22;5063;50.878;4.742;2022-07-15T04:16:41;12.20;99.90
10046;DHT22;5063;50.878;4.742;2022-07-15T04:19:07;12.20;99.90
10046;DHT22;5063;50.878;4.742;2022-07-15T04:21:33;12.40;99.90
10046;DHT22;5063;50.878;4.742;2022-07-15T04:23:59;12.30;99.90
10046;DHT22;5063;50.878;4.742;2022-07-15T04:26:25;12.40;99.90
10046;DHT22;5063;50.878;4.742;2022-07-15T04:28:51;12.40;99.90
10046;DHT22;5063;50.878;4.742;2022-07-15T04:31:17;12.50;99.90
10046;DHT22;5063;50.878;4.742;2022-07-15T04:33:43;12.50;99.90
10046;DHT22;5063;50.878;4.742;2022-07-15T04:36:08;12.60;99.90
10046;DHT22;5063;50.878;4.742;2022-07-15T04:38:37;12.80;99.90
10046;DHT22;5063;50.878;4.742;2022-07-15T04:41:03;12.70;99.90
10046;DHT22;5063;50.878;4.742;2022-07-15T04:43:29;12.70;99.90
10046;DHT22;5063;50.878;4.742;2022-07-15T04:45:54;12.90;99.90
10046;DHT22;5063;50.878;4.742;2022-07-15T04:48:20;13.10;99.90
10046;DHT22;5063;50.878;4.742;2022-07-15T04:51:05;13.10;99.90
10046;DHT22;5063;50.878;4.742;2022-07-15T04:53:31;13.30;99.90
10046;DHT22;5063;50.878;4.742;2022-07-15T04:55:57;13.40;99.90
10046;DHT22;5063;50.878;4.742;2022-07-15T04:58:22;13.50;99.90
10046;DHT22;5063;50.878;4.742;2022-07-15T05:00:48;13.60;99.90
10046;DHT22;5063;50.878;4.742;2022-07-15T05:03:14;13.70;99.90
10046;DHT22;5063;50.878;4.742;2022-07-15T05:05:40;13.80;99.90
10046;DHT22;5063;50.878;4.742;2022-07-15T05:08:07;13.90;99.90
10046;DHT22;5063;50.878;4.742;2022-07-15T05:10:33;14.10;99.90
10046;DHT22;5063;50.878;4.742;2022-07-15T05:12:58;14.40;99.90
10046;DHT22;5063;50.878;4.742;2022-07-15T05:15:24;14.50;99.90
10046;DHT22;5063;50.878;4.742;2022-07-15T05:17:50;14.70;99.90
10046;DHT22;5063;50.878;4.742;2022-07-15T05:20:16;14.90;99.90
10046;DHT22;5063;50.878;4.742;2022-07-15T05:22:42;15.00;99.90
10046;DHT22;5063;50.878;4.742;2022-07-15T05:25:08;15.10;99.90
10046;DHT22;5063;50.878;4.742;2022-07-15T05:27:33;15.20;99.90
10046;DHT22;5063;50.878;4.742;2022-07-15T05:30:00;15.20;99.90
10046;DHT22;5063;50.878;4.742;2022-07-15T05:32:26;15.20;99.90
10046;DHT22;5063;50.878;4.742;2022-07-15T05:34:51;15.70;99.90
10046;DHT22;5063;50.878;4.742;2022-07-15T05:37:17;17.30;99.90
10046;DHT22;5063;50.878;4.742;2022-07-15T05:39:43;19.70;99.90
10046;DHT22;5063;50.878;4.742;2022-07-15T05:42:23;21.90;99.90
10046;DHT22;5063;50.878;4.742;2022-07-15T05:44:49;24.10;99.90
10046;DHT22;5063;50.878;4.742;2022-07-15T05:47:15;25.40;99.90
10046;DHT22;5063;50.878;4.742;2022-07-15T05:49:42;26.10;99.90
10046;DHT22;5063;50.878;4.742;2022-07-15T05:52:08;26.70;99.90
10046;DHT22;5063;50.878;4.742;2022-07-15T05:54:34;27.30;98.40
10046;DHT22;5063;50.878;4.742;2022-07-15T05:57:00;28.00;95.00
10046;DHT22;5063;50.878;4.742;2022-07-15T05:59:40;26.80;92.00
10046;DHT22;5063;50.878;4.742;2022-07-15T06:02:06;27.40;93.10
10046;DHT22;5063;50.878;4.742;2022-07-15T06:04:33;28.20;91.40
10046;DHT22;5063;50.878;4.742;2022-07-15T06:06:59;28.70;88.40
10046;DHT22;5063;50.878;4.742;2022-07-15T06:09:25;29.70;83.60
10046;DHT22;5063;50.878;4.742;2022-07-15T06:11:52;30.10;78.70
10046;DHT22;5063;50.878;4.742;2022-07-15T06:14:18;29.50;77.00
10046;DHT22;5063;50.878;4.742;2022-07-15T06:16:47;28.80;76.90
10046;DHT22;5063;50.878;4.742;2022-07-15T06:19:12;29.00;80.10
10046;DHT22;5063;50.878;4.742;2022-07-15T06:21:38;28.70;77.80
10046;DHT22;5063;50.878;4.742;2022-07-15T06:24:04;28.90;76.80
10046;DHT22;5063;50.878;4.742;2022-07-15T06:26:30;28.50;79.80
10046;DHT22;5063;50.878;4.742;2022-07-15T06:28:57;28.80;76.90
10046;DHT22;5063;50.878;4.742;2022-07-15T06:31:22;29.10;76.70
10046;DHT22;5063;50.878;4.742;2022-07-15T06:33:48;28.70;75.40
10046;DHT22;5063;50.878;4.742;2022-07-15T06:36:15;29.70;75.70
10046;DHT22;5063;50.878;4.742;2022-07-15T06:38:43;29.90;70.30
10046;DHT22;5063;50.878;4.742;2022-07-15T06:41:09;29.70;71.80
10046;DHT22;5063;50.878;4.742;2022-07-15T06:43:34;29.30;73.00
10046;DHT22;5063;50.878;4.742;2022-07-15T06:46:00;30.30;69.30
10046;DHT22;5063;50.878;4.742;2022-07-15T06:48:26;31.00;67.20
10046;DHT22;5063;50.878;4.742;2022-07-15T06:50:51;31.10;68.10
10046;DHT22;5063;50.878;4.742;2022-07-15T06:53:17;29.10;67.90
10046;DHT22;5063;50.878;4.742;2022-07-15T06:55:43;30.20;66.90
10046;DHT22;5063;50.878;4.742;2022-07-15T06:58:09;30.50;66.60
10046;DHT22;5063;50.878;4.742;2022-07-15T07:00:34;30.10;66.00
10046;DHT22;5063;50.878;4.742;2022-07-15T07:03:00;30.70;66.80
10046;DHT22;5063;50.878;4.742;2022-07-15T07:05:26;30.20;63.70
10046;DHT22;5063;50.878;4.742;2022-07-15T07:07:54;30.70;63.60
10046;DHT22;5063;50.878;4.742;2022-07-15T07:10:20;30.30;63.10
10046;DHT22;5063;50.878;4.742;2022-07-15T07:12:46;30.90;62.80
10046;DHT22;5063;50.878;4.742;2022-07-15T07:15:11;30.60;62.50
10046;DHT22;5063;50.878;4.742;2022-07-15T07:17:37;29.90;63.50
10046;DHT22;5063;50.878;4.742;2022-07-15T07:20:03;29.30;62.70
10046;DHT22;5063;50.878;4.742;2022-07-15T07:22:29;29.70;62.80
10046;DHT22;5063;50.878;4.742;2022-07-15T07:24:55;30.80;62.90
10046;DHT22;5063;50.878;4.742;2022-07-15T07:27:20;31.10;61.10
10046;DHT22;5063;50.878;4.742;2022-07-15T07:29:46;30.30;60.00
10046;DHT22;5063;50.878;4.742;2022-07-15T07:32:12;29.60;62.80
10046;DHT22;5063;50.878;4.742;2022-07-15T07:34:38;29.70;61.10
10046;DHT22;5063;50.878;4.742;2022-07-15T07:37:04;28.20;63.80
10046;DHT22;5063;50.878;4.742;2022-07-15T07:39:30;27.90;64.60
10046;DHT22;5063;50.878;4.742;2022-07-15T07:41:55;28.40;59.60
10046;DHT22;5063;50.878;4.742;2022-07-15T07:44:21;28.40;60.90
10046;DHT22;5063;50.878;4.742;2022-07-15T07:46:47;27.10;65.80
10046;DHT22;5063;50.878;4.742;2022-07-15T07:49:13;27.70;67.60
10046;DHT22;5063;50.878;4.742;2022-07-15T07:51:41;29.10;64.90
10046;DHT22;5063;50.878;4.742;2022-07-15T07:54:08;30.60;61.30
10046;DHT22;5063;50.878;4.742;2022-07-15T07:56:34;31.00;58.90
10046;DHT22;5063;50.878;4.742;2022-07-15T07:59:01;31.70;57.40
10046;DHT22;5063;50.878;4.742;2022-07-15T08:01:26;30.40;58.70
10046;DHT22;5063;50.878;4.742;2022-07-15T08:03:52;31.10;58.50
10046;DHT22;5063;50.878;4.742;2022-07-15T08:06:18;31.20;58.50
10046;DHT22;5063;50.878;4.742;2022-07-15T08:08:45;31.10;58.90
10046;DHT22;5063;50.878;4.742;2022-07-15T08:11:11;31.20;57.40
10046;DHT22;5063;50.878;4.742;2022-07-15T08:13:38;31.10;57.80
10046;DHT22;5063;50.878;4.742;2022-07-15T08:16:04;30.30;58.70
10046;DHT22;5063;50.878;4.742;2022-07-15T08:18:32;31.80;58.40
10046;DHT22;5063;50.878;4.742;2022-07-15T08:20:57;33.20;56.80
10046;DHT22;5063;50.878;4.742;2022-07-15T08:23:23;33.10;55.20
10046;DHT22;5063;50.878;4.742;2022-07-15T08:25:51;30.30;56.20
10046;DHT22;5063;50.878;4.742;2022-07-15T08:28:17;29.80;56.90
10046;DHT22;5063;50.878;4.742;2022-07-15T08:30:44;27.70;59.00
10046;DHT22;5063;50.878;4.742;2022-07-15T08:33:09;26.60;63.20
10046;DHT22;5063;50.878;4.742;2022-07-15T08:35:35;25.90;65.80
10046;DHT22;5063;50.878;4.742;2022-07-15T08:38:05;24.90;69.20
10046;DHT22;5063;50.878;4.742;2022-07-15T08:40:36;24.20;72.70
10046;DHT22;5063;50.878;4.742;2022-07-15T08:43:05;23.40;77.50
10046;DHT22;5063;50.878;4.742;2022-07-15T08:45:34;24.60;78.30
10046;DHT22;5063;50.878;4.742;2022-07-15T08:48:01;26.30;71.70
10046;DHT22;5063;50.878;4.742;2022-07-15T08:50:29;27.80;65.90
10046;DHT22;5063;50.878;4.742;2022-07-15T08:52:56;28.20;62.30
10046;DHT22;5063;50.878;4.742;2022-07-15T08:55:22;29.30;62.90
10046;DHT22;5063;50.878;4.742;2022-07-15T08:57:49;30.20;60.60
10046;DHT22;5063;50.878;4.742;2022-07-15T09:00:16;29.40;59.10
10046;DHT22;5063;50.878;4.742;2022-07-15T09:02:42;29.20;60.10
10046;DHT22;5063;50.878;4.742;2022-07-15T09:05:24;29.20;59.30
10046;DHT22;5063;50.878;4.742;2022-07-15T09:10:25;30.80;57.10
10046;DHT22;5063;50.878;4.742;2022-07-15T09:12:53;30.60;57.10
10046;DHT22;5063;50.878;4.742;2022-07-15T09:15:33;29.80;57.10
10046;DHT22;5063;50.878;4.742;2022-07-15T09:18:09;30.30;57.20
10046;DHT22;5063;50.878;4.742;2022-07-15T09:20:36;29.80;57.50
10046;DHT22;5063;50.878;4.742;2022-07-15T09:23:03;29.90;58.40
10046;DHT22;5063;50.878;4.742;2022-07-15T09:25:30;29.80;59.20
10046;DHT22;5063;50.878;4.742;2022-07-15T09:28:00;28.90;59.30
10046;DHT22;5063;50.878;4.742;2022-07-15T09:30:38;29.80;59.30
10046;DHT22;5063;50.878;4.742;2022-07-15T09:33:25;29.90;57.40
10046;DHT22;5063;50.878;4.742;2022-07-15T09:36:17;28.80;58.30
10046;DHT22;5063;50.878;4.742;2022-07-15T09:41:37;28.20;59.60
10046;DHT22;5063;50.878;4.742;2022-07-15T09:49:10;27.60;59.60
10046;DHT22;5063;50.878;4.742;2022-07-15T09:51:56;27.00;61.50
10046;DHT22;5063;50.878;4.742;2022-07-15T09:54:27;26.30;64.10
10046;DHT22;5063;50.878;4.742;2022-07-15T09:56:57;25.60;65.70
10046;DHT22;5063;50.878;4.742;2022-07-15T09:59:24;25.00;68.20
10046;DHT22;5063;50.878;4.742;2022-07-15T10:01:51;24.40;71.30
10046;DHT22;5063;50.878;4.742;2022-07-15T10:04:21;23.70;73.90
10046;DHT22;5063;50.878;4.742;2022-07-15T10:06:52;23.50;75.70
10046;DHT22;5063;50.878;4.742;2022-07-15T10:09:26;23.30;77.50
10046;DHT22;5063;50.878;4.742;2022-07-15T10:11:57;23.30;77.20
10046;DHT22;5063;50.878;4.742;2022-07-15T10:28:13;24.10;77.40
10046;DHT22;5063;50.878;4.742;2022-07-15T10:30:40;24.40;72.50
10046;DHT22;5063;50.878;4.742;2022-07-15T10:33:17;24.60;69.20
10046;DHT22;5063;50.878;4.742;2022-07-15T10:35:53;24.50;69.60
10046;DHT22;5063;50.878;4.742;2022-07-15T10:38:31;24.10;72.80
10046;DHT22;5063;50.878;4.742;2022-07-15T10:43:51;24.00;75.40
10046;DHT22;5063;50.878;4.742;2022-07-15T10:51:10;24.10;73.50
10046;DHT22;5063;50.878;4.742;2022-07-15T10:53:44;24.00;73.10
10046;DHT22;5063;50.878;4.742;2022-07-15T10:56:30;23.80;71.90
10046;DHT22;5063;50.878;4.742;2022-07-15T10:59:16;24.00;74.30
10046;DHT22;5063;50.878;4.742;2022-07-15T11:04:26;24.40;72.90
10046;DHT22;5063;50.878;4.742;2022-07-15T11:12:19;24.50;70.40
10046;DHT22;5063;50.878;4.742;2022-07-15T11:19:59;24.00;71.60
10046;DHT22;5063;50.878;4.742;2022-07-15T11:22:27;24.20;69.90
10046;DHT22;5063;50.878;4.742;2022-07-15T11:24:53;24.60;72.50
10046;DHT22;5063;50.878;4.742;2022-07-15T11:27:20;25.00;70.40
10046;DHT22;5063;50.878;4.742;2022-07-15T11:29:55;24.90;69.90
10046;DHT22;5063;50.878;4.742;2022-07-15T11:32:25;24.80;68.80
10046;DHT22;5063;50.878;4.742;2022-07-15T11:34:56;25.00;68.90
10046;DHT22;5063;50.878;4.742;2022-07-15T11:37:34;24.50;68.20
10046;DHT22;5063;50.878;4.742;2022-07-15T11:40:08;24.90;69.70
10046;DHT22;5063;50.878;4.742;2022-07-15T11:42:35;25.00;69.80
10046;DHT22;5063;50.878;4.742;2022-07-15T11:45:37;25.00;69.60
10046;DHT22;5063;50.878;4.742;2022-07-15T11:48:05;25.40;68.30
10046;DHT22;5063;50.878;4.742;2022-07-15T11:50:41;25.50;66.90
10046;DHT22;5063;50.878;4.742;2022-07-15T11:53:14;25.90;67.40
10046;DHT22;5063;50.878;4.742;2022-07-15T11:56:07;25.80;65.10
10046;DHT22;5063;50.878;4.742;2022-07-15T11:58:36;25.90;67.20
10046;DHT22;5063;50.878;4.742;2022-07-15T12:01:08;25.80;65.20
10046;DHT22;5063;50.878;4.742;2022-07-15T12:03:46;26.10;64.80
10046;DHT22;5063;50.878;4.742;2022-07-15T12:06:17;25.70;65.20
10046;DHT22;5063;50.878;4.742;2022-07-15T12:08:47;25.30;66.20
10046;DHT22;5063;50.878;4.742;2022-07-15T12:11:23;25.40;66.00
10046;DHT22;5063;50.878;4.742;2022-07-15T12:13:52;25.80;65.50
10046;DHT22;5063;50.878;4.742;2022-07-15T12:16:22;25.60;65.10
10046;DHT22;5063;50.878;4.742;2022-07-15T12:18:49;25.40;64.90
10046;DHT22;5063;50.878;4.742;2022-07-15T12:21:17;25.30;65.00
10046;DHT22;5063;50.878;4.742;2022-07-15T12:26:34;25.00;67.10
10046;DHT22;5063;50.878;4.742;2022-07-15T12:29:02;25.40;68.50
10046;DHT22;5063;50.878;4.742;2022-07-15T12:31:31;25.90;67.20
10046;DHT22;5063;50.878;4.742;2022-07-15T12:33:57;26.30;64.30
10046;DHT22;5063;50.878;4.742;2022-07-15T12:36:29;26.70;64.20
10046;DHT22;5063;50.878;4.742;2022-07-15T12:39:04;26.80;61.80
10046;DHT22;5063;50.878;4.742;2022-07-15T12:41:30;27.10;60.70
10046;DHT22;5063;50.878;4.742;2022-07-15T12:43:58;26.80;61.20
10046;DHT22;5063;50.878;4.742;2022-07-15T12:49:40;26.90;61.30
10046;DHT22;5063;50.878;4.742;2022-07-15T12:52:18;26.50;62.20
10046;DHT22;5063;50.878;4.742;2022-07-15T12:54:45;26.50;62.70
10046;DHT22;5063;50.878;4.742;2022-07-15T12:57:35;26.30;62.90
10046;DHT22;5063;50.878;4.742;2022-07-15T13:02:28;26.60;64.10
10046;DHT22;5063;50.878;4.742;2022-07-15T13:04:54;27.10;61.40
10046;DHT22;5063;50.878;4.742;2022-07-15T13:07:20;27.20;60.60
10046;DHT22;5063;50.878;4.742;2022-07-15T13:09:46;27.50;59.90
10046;DHT22;5063;50.878;4.742;2022-07-15T13:12:12;27.20;60.00
10046;DHT22;5063;50.878;4.742;2022-07-15T13:14:40;27.00;60.80
10046;DHT22;5063;50.878;4.742;2022-07-15T13:17:06;26.50;61.50
10046;DHT22;5063;50.878;4.742;2022-07-15T13:19:32;26.40;62.10
10046;DHT22;5063;50.878;4.742;2022-07-15T13:21:59;25.80;62.80
10046;DHT22;5063;50.878;4.742;2022-07-15T13:24:25;25.80;64.20
10046;DHT22;5063;50.878;4.742;2022-07-15T13:26:51;25.80;64.30
10046;DHT22;5063;50.878;4.742;2022-07-15T13:29:17;25.40;65.50
10046;DHT22;5063;50.878;4.742;2022-07-15T13:31:43;25.40;66.60
10046;DHT22;5063;50.878;4.742;2022-07-15T13:34:09;25.30;67.60
10046;DHT22;5063;50.878;4.742;2022-07-15T13:36:35;25.30;67.00
10046;DHT22;5063;50.878;4.742;2022-07-15T13:39:02;25.40;67.30
10046;DHT22;5063;50.878;4.742;2022-07-15T13:41:28;25.80;65.30
10046;DHT22;5063;50.878;4.742;2022-07-15T13:43:54;26.30;64.30
10046;DHT22;5063;50.878;4.742;2022-07-15T13:46:19;26.00;62.90
10046;DHT22;5063;50.878;4.742;2022-07-15T13:48:45;25.60;64.40
10046;DHT22;5063;50.878;4.742;2022-07-15T13:51:11;25.70;66.30
10046;DHT22;5063;50.878;4.742;2022-07-15T13:53:53;25.60;64.40
10046;DHT22;5063;50.878;4.742;2022-07-15T13:56:20;25.50;64.20
10046;DHT22;5063;50.878;4.742;2022-07-15T13:58:46;25.30;63.40
10046;DHT22;5063;50.878;4.742;2022-07-15T14:01:13;25.10;63.70
10046;DHT22;5063;50.878;4.742;2022-07-15T14:03:38;25.20;65.10
10046;DHT22;5063;50.878;4.742;2022-07-15T14:06:05;25.30;65.70
10046;DHT22;5063;50.878;4.742;2022-07-15T14:08:30;25.50;64.80
10046;DHT22;5063;50.878;4.742;2022-07-15T14:10:56;25.80;64.50
10046;DHT22;5063;50.878;4.742;2022-07-15T14:13:22;26.10;63.50
10046;DHT22;5063;50.878;4.742;2022-07-15T14:15:47;26.00;63.60
10046;DHT22;5063;50.878;4.742;2022-07-15T14:18:14;26.30;65.00
10046;DHT22;5063;50.878;4.742;2022-07-15T14:20:40;26.00;62.90
10046;DHT22;5063;50.878;4.742;2022-07-15T14:23:12;26.00;62.00
10046;DHT22;5063;50.878;4.742;2022-07-15T14:25:38;26.00;63.00
10046;DHT22;5063;50.878;4.742;2022-07-15T14:28:04;25.20;62.40
10046;DHT22;5063;50.878;4.742;2022-07-15T14:30:30;24.70;64.40
10046;DHT22;5063;50.878;4.742;2022-07-15T14:32:55;24.60;65.00
10046;DHT22;5063;50.878;4.742;2022-07-15T14:35:22;24.80;65.70
10046;DHT22;5063;50.878;4.742;2022-07-15T14:37:48;25.10;65.50
10046;DHT22;5063;50.878;4.742;2022-07-15T14:40:14;24.90;65.00
10046;DHT22;5063;50.878;4.742;2022-07-15T14:42:40;24.60;67.50
10046;DHT22;5063;50.878;4.742;2022-07-15T14:45:07;24.80;66.70
10046;DHT22;5063;50.878;4.742;2022-07-15T14:47:33;24.50;68.00
10046;DHT22;5063;50.878;4.742;2022-07-15T14:49:59;24.40;68.30
10046;DHT22;5063;50.878;4.742;2022-07-15T14:52:25;24.20;68.30
10046;DHT22;5063;50.878;4.742;2022-07-15T14:54:51;24.10;67.70
10046;DHT22;5063;50.878;4.742;2022-07-15T14:57:16;24.20;69.00
10046;DHT22;5063;50.878;4.742;2022-07-15T14:59:43;24.10;68.40
10046;DHT22;5063;50.878;4.742;2022-07-15T15:02:09;24.20;69.30
10046;DHT22;5063;50.878;4.742;2022-07-15T15:04:35;24.30;71.10
10046;DHT22;5063;50.878;4.742;2022-07-15T15:07:01;24.20;68.20
10046;DHT22;5063;50.878;4.742;2022-07-15T15:09:27;24.20;68.20
10046;DHT22;5063;50.878;4.742;2022-07-15T15:11:53;24.50;69.30
10046;DHT22;5063;50.878;4.742;2022-07-15T15:14:19;25.00;68.80
10046;DHT22;5063;50.878;4.742;2022-07-15T15:16:47;25.20;66.80
10046;DHT22;5063;50.878;4.742;2022-07-15T15:19:12;25.30;67.70
10046;DHT22;5063;50.878;4.742;2022-07-15T15:21:38;25.60;67.20
10046;DHT22;5063;50.878;4.742;2022-07-15T15:24:04;25.30;65.70
10046;DHT22;5063;50.878;4.742;2022-07-15T15:26:35;25.20;67.20
10046;DHT22;5063;50.878;4.742;2022-07-15T15:29:00;24.90;66.90
10046;DHT22;5063;50.878;4.742;2022-07-15T15:31:26;24.90;68.50
10046;DHT22;5063;50.878;4.742;2022-07-15T15:33:52;24.60;68.80
10046;DHT22;5063;50.878;4.742;2022-07-15T15:36:18;25.00;70.00
10046;DHT22;5063;50.878;4.742;2022-07-15T15:38:45;25.80;69.50
10046;DHT22;5063;50.878;4.742;2022-07-15T15:41:11;26.80;67.30
10046;DHT22;5063;50.878;4.742;2022-07-15T15:43:37;27.80;63.70
10046;DHT22;5063;50.878;4.742;2022-07-15T15:46:03;28.70;62.80
10046;DHT22;5063;50.878;4.742;2022-07-15T15:48:30;29.30;59.20
10046;DHT22;5063;50.878;4.742;2022-07-15T15:50:57;29.40;58.00
10046;DHT22;5063;50.878;4.742;2022-07-15T15:53:23;29.60;58.50
10046;DHT22;5063;50.878;4.742;2022-07-15T15:55:49;29.90;58.00
10046;DHT22;5063;50.878;4.742;2022-07-15T15:58:15;30.10;57.40
10046;DHT22;5063;50.878;4.742;2022-07-15T16:00:41;29.90;56.80
10046;DHT22;5063;50.878;4.742;2022-07-15T16:03:06;29.60;56.50
10046;DHT22;5063;50.878;4.742;2022-07-15T16:05:32;29.60;56.50
10046;DHT22;5063;50.878;4.742;2022-07-15T16:07:58;29.60;55.90
10046;DHT22;5063;50.878;4.742;2022-07-15T16:10:24;29.50;55.60
10046;DHT22;5063;50.878;4.742;2022-07-15T16:12:49;29.40;56.40
10046;DHT22;5063;50.878;4.742;2022-07-15T16:15:15;29.20;57.60
10046;DHT22;5063;50.878;4.742;2022-07-15T16:17:41;28.70;58.00
10046;DHT22;5063;50.878;4.742;2022-07-15T16:20:07;28.70;57.00
10046;DHT22;5063;50.878;4.742;2022-07-15T16:22:33;28.40;57.30
10046;DHT22;5063;50.878;4.742;2022-07-15T16:25:22;27.90;56.80
10046;DHT22;5063;50.878;4.742;2022-07-15T16:27:48;28.00;57.30
10046;DHT22;5063;50.878;4.742;2022-07-15T16:30:14;28.30;58.30
10046;DHT22;5063;50.878;4.742;2022-07-15T16:32:41;28.80;58.30
10046;DHT22;5063;50.878;4.742;2022-07-15T16:35:07;28.50;57.00
10046;DHT22;5063;50.878;4.742;2022-07-15T16:37:33;28.30;57.60
10046;DHT22;5063;50.878;4.742;2022-07-15T16:40:00;28.30;57.00
10046;DHT22;5063;50.878;4.742;2022-07-15T16:42:25;28.20;59.30